createdAt,value
2022-11-24T00:01:16.635Z,90.77
2022-11-24T00:02:48.521Z,91.00
2022-11-24T00:04:20.454Z,90.88
2022-11-24T00:05:52.265Z,90.94
2022-11-24T00:07:24.139Z,91.00
2022-11-24T00:08:55.977Z,91.06
2022-11-24T00:10:27.809Z,91.15
2022-11-24T00:12:01.633Z,91.28
2022-11-24T00:13:34.875Z,91.17
2022-11-24T00:15:06.959Z,91.41
2022-11-24T00:16:38.999Z,91.36
2022-11-24T00:18:10.994Z,91.53
2022-11-24T00:19:42.939Z,91.52
2022-11-24T00:21:15.207Z,91.44
2022-11-24T00:22:47.084Z,91.55
2022-11-24T00:24:18.892Z,91.55
2022-11-24T00:25:50.728Z,91.50
2022-11-24T00:27:22.593Z,91.39
2022-11-24T00:28:55.174Z,91.57
2022-11-24T00:30:26.977Z,91.62
2022-11-24T00:31:59.137Z,91.74
2022-11-24T00:33:34.117Z,91.77
2022-11-24T00:35:06.932Z,91.57
2022-11-24T00:36:39.108Z,91.72
2022-11-24T00:38:10.923Z,91.62
2022-11-24T00:39:42.692Z,91.70
2022-11-24T00:41:14.670Z,91.62
2022-11-24T00:42:46.465Z,91.30
2022-11-24T00:44:18.363Z,91.30
2022-11-24T00:45:50.382Z,91.39
2022-11-24T00:47:22.326Z,91.35
2022-11-24T00:48:54.423Z,91.19
2022-11-24T00:50:26.311Z,91.29
2022-11-24T00:51:58.165Z,91.18
2022-11-24T00:53:30.039Z,91.12
2022-11-24T00:55:01.868Z,91.23
2022-11-24T00:56:34.302Z,90.96
2022-11-24T00:58:06.110Z,90.92
2022-11-24T00:59:37.860Z,91.02
2022-11-24T01:01:14.084Z,91.10
2022-11-24T01:02:45.976Z,91.14
2022-11-24T01:04:18.378Z,91.13
2022-11-24T01:05:50.221Z,90.77
2022-11-24T01:07:22.012Z,90.73
2022-11-24T01:08:53.910Z,90.83
2022-11-24T01:10:28.466Z,90.98
2022-11-24T01:12:03.166Z,90.98
2022-11-24T01:13:34.956Z,91.19
2022-11-24T01:15:06.951Z,90.76
2022-11-24T01:16:39.061Z,91.03
2022-11-24T01:18:10.913Z,91.05
2022-11-24T01:19:42.738Z,91.22
2022-11-24T01:21:15.002Z,91.16
2022-11-24T01:22:48.185Z,91.44
2022-11-24T01:24:20.121Z,91.34
2022-11-24T01:25:51.979Z,91.26
2022-11-24T01:27:23.841Z,91.31
2022-11-24T01:28:56.394Z,91.37
2022-11-24T01:30:28.205Z,91.69
2022-11-24T01:32:00.063Z,91.63
2022-11-24T01:33:31.928Z,91.46
2022-11-24T01:35:04.380Z,91.53
2022-11-24T01:36:36.242Z,91.32
2022-11-24T01:39:40.931Z,91.52
2022-11-24T01:41:14.007Z,91.41
2022-11-24T01:42:50.066Z,91.47
2022-11-24T01:44:23.011Z,91.48
2022-11-24T01:45:54.894Z,91.42
2022-11-24T01:47:26.662Z,91.19
2022-11-24T01:49:01.808Z,91.32
2022-11-24T01:50:33.956Z,91.22
2022-11-24T01:52:22.528Z,91.46
2022-11-24T01:53:58.349Z,91.33
2022-11-24T01:55:31.492Z,91.25
2022-11-24T01:57:05.961Z,91.41
2022-11-24T01:58:37.815Z,91.42
2022-11-24T02:00:10.721Z,91.35
2022-11-24T02:01:42.580Z,91.45
2022-11-24T02:03:14.971Z,91.54
2022-11-24T02:04:46.778Z,91.82
2022-11-24T02:06:20.412Z,91.67
2022-11-24T02:07:52.686Z,91.67
2022-11-24T02:09:26.271Z,91.83
2022-11-24T02:10:58.101Z,91.82
2022-11-24T02:12:32.574Z,91.85
2022-11-24T02:14:04.891Z,91.86
2022-11-24T02:15:36.886Z,91.78
2022-11-24T02:17:08.984Z,91.63
2022-11-24T02:18:40.975Z,91.66
2022-11-24T02:20:12.975Z,91.88
2022-11-24T02:21:44.787Z,91.98
2022-11-24T02:23:24.386Z,91.89
2022-11-24T02:25:05.225Z,91.75
2022-11-24T02:26:46.855Z,91.80
2022-11-24T02:28:19.662Z,91.87
2022-11-24T02:29:51.528Z,91.79
2022-11-24T02:33:45.000Z,92.03
2022-11-24T02:35:17.565Z,91.76
2022-11-24T02:36:49.394Z,91.75
2022-11-24T02:38:29.185Z,91.95
2022-11-24T02:40:01.042Z,91.77
2022-11-24T02:41:32.910Z,91.76
2022-11-24T02:43:06.143Z,91.99
2022-11-24T02:44:41.925Z,92.15
2022-11-24T02:46:13.912Z,92.04
2022-11-24T02:49:17.614Z,92.19
2022-11-24T02:50:49.477Z,92.35
2022-11-24T02:52:21.315Z,92.31
2022-11-24T02:53:53.174Z,91.99
2022-11-24T02:55:25.188Z,92.24
2022-11-24T02:56:57.058Z,92.42
2022-11-24T02:58:31.235Z,92.42
2022-11-24T03:00:03.293Z,92.42
2022-11-24T03:01:35.344Z,92.28
2022-11-24T03:03:07.429Z,92.30
2022-11-24T03:04:39.268Z,92.29
2022-11-24T03:06:11.104Z,92.28
2022-11-24T03:07:43.016Z,92.11
2022-11-24T03:09:14.857Z,92.38
2022-11-24T03:10:46.698Z,92.19
2022-11-24T03:12:18.569Z,92.49
2022-11-24T03:13:50.441Z,92.41
2022-11-24T03:15:22.619Z,92.38
2022-11-24T03:16:54.465Z,92.23
2022-11-24T03:18:26.230Z,92.28
2022-11-24T03:20:02.918Z,92.29
2022-11-24T03:21:36.746Z,92.34
2022-11-24T03:23:09.270Z,92.45
2022-11-24T03:24:41.089Z,92.24
2022-11-24T03:26:14.214Z,92.27
2022-11-24T03:27:46.071Z,92.16
2022-11-24T03:29:17.965Z,92.12
2022-11-24T03:30:49.894Z,92.24
2022-11-24T03:32:21.775Z,92.31
2022-11-24T03:33:53.643Z,92.27
2022-11-24T03:35:26.540Z,92.36
2022-11-24T03:36:58.791Z,92.06
2022-11-24T03:38:30.622Z,92.23
2022-11-24T03:40:02.432Z,92.37
2022-11-24T03:41:34.394Z,92.54
2022-11-24T03:43:06.324Z,92.63
2022-11-24T03:44:38.109Z,92.69
2022-11-24T03:46:10.089Z,92.68
2022-11-24T03:47:42.018Z,92.47
2022-11-24T03:49:13.863Z,92.57
2022-11-24T03:50:52.427Z,92.70
2022-11-24T03:52:26.872Z,92.57
2022-11-24T03:53:58.667Z,92.76
2022-11-24T03:55:30.560Z,92.69
2022-11-24T03:57:02.536Z,92.43
2022-11-24T03:58:34.594Z,92.29
2022-11-24T04:00:07.168Z,92.45
2022-11-24T04:01:39.201Z,92.14
2022-11-24T04:03:11.131Z,92.00
2022-11-24T04:04:48.469Z,91.95
2022-11-24T04:06:21.530Z,91.94
2022-11-24T04:07:55.785Z,92.05
2022-11-24T04:09:27.699Z,92.00
2022-11-24T04:10:59.593Z,92.16
2022-11-24T04:12:46.791Z,91.98
2022-11-24T04:14:19.832Z,92.04
2022-11-24T04:15:54.083Z,92.09
2022-11-24T04:17:26.349Z,92.24
2022-11-24T04:19:01.147Z,92.49
2022-11-24T04:20:33.234Z,92.54
2022-11-24T04:22:05.043Z,92.67
2022-11-24T04:23:36.844Z,92.56
2022-11-24T04:25:09.018Z,92.67
2022-11-24T04:26:40.921Z,92.71
2022-11-24T04:28:12.776Z,92.73
2022-11-24T04:29:44.597Z,92.84
2022-11-24T04:31:16.747Z,92.58
2022-11-24T04:32:51.692Z,92.88
2022-11-24T04:34:23.556Z,92.66
2022-11-24T04:35:55.449Z,92.45
2022-11-24T04:37:27.319Z,92.54
2022-11-24T04:39:23.500Z,92.39
2022-11-24T04:40:51.026Z,92.22
2022-11-24T04:42:22.921Z,92.26
2022-11-24T04:43:54.838Z,92.05
2022-11-24T04:45:27.496Z,92.09
2022-11-24T04:46:59.400Z,92.42
2022-11-24T04:48:31.407Z,92.31
2022-11-24T04:50:04.892Z,92.44
2022-11-24T04:51:36.709Z,92.54
2022-11-24T04:53:09.512Z,92.54
2022-11-24T04:54:41.457Z,92.57
2022-11-24T04:56:13.339Z,92.38
2022-11-24T04:57:45.351Z,92.62
2022-11-24T04:59:17.469Z,92.42
2022-11-24T05:00:49.415Z,92.50
2022-11-24T05:02:21.416Z,92.29
2022-11-24T05:03:54.127Z,92.29
2022-11-24T05:05:26.022Z,92.44
2022-11-24T05:06:57.800Z,92.26
2022-11-24T05:08:29.634Z,92.43
2022-11-24T05:10:20.250Z,92.40
2022-11-24T05:11:52.146Z,92.43
2022-11-24T05:13:24.188Z,92.59
2022-11-24T05:14:56.082Z,92.66
2022-11-24T05:16:29.360Z,92.76
2022-11-24T05:18:03.971Z,92.88
2022-11-24T05:19:35.867Z,92.62
2022-11-24T05:21:07.726Z,92.68
2022-11-24T05:22:39.616Z,92.68
2022-11-24T05:24:11.625Z,92.83
2022-11-24T05:25:47.408Z,92.77
2022-11-24T05:27:19.668Z,92.78
2022-11-24T05:28:51.579Z,92.63
2022-11-24T05:30:23.925Z,92.63
2022-11-24T05:31:55.899Z,92.19
2022-11-24T05:33:28.953Z,92.28
2022-11-24T05:35:02.616Z,92.31
2022-11-24T05:36:54.839Z,92.49
2022-11-24T05:38:27.250Z,92.24
2022-11-24T05:39:59.245Z,92.37
2022-11-24T05:41:31.489Z,92.23
2022-11-24T05:43:03.612Z,92.26
2022-11-24T05:44:35.914Z,92.22
2022-11-24T05:47:41.505Z,92.30
2022-11-24T05:49:13.449Z,92.25
2022-11-24T05:50:45.294Z,92.02
2022-11-24T05:52:17.236Z,92.06
2022-11-24T05:53:49.189Z,91.97
2022-11-24T05:55:21.042Z,92.07
2022-11-24T05:56:53.029Z,92.21
2022-11-24T05:58:25.017Z,92.39
2022-11-24T05:59:57.539Z,92.42
2022-11-24T06:01:29.686Z,92.30
2022-11-24T06:03:02.077Z,92.16
2022-11-24T06:04:34.624Z,92.17
2022-11-24T06:06:07.007Z,91.98
2022-11-24T06:07:39.375Z,92.05
2022-11-24T06:09:11.373Z,91.84
2022-11-24T06:10:43.296Z,91.72
2022-11-24T06:12:15.522Z,91.62
2022-11-24T06:13:48.887Z,91.76
2022-11-24T06:15:23.829Z,91.64
2022-11-24T06:16:55.954Z,91.69
2022-11-24T06:18:28.404Z,91.82
2022-11-24T06:20:00.236Z,91.62
2022-11-24T06:21:32.458Z,91.56
2022-11-24T06:23:04.308Z,91.77
2022-11-24T06:24:36.558Z,91.49
2022-11-24T06:26:09.544Z,91.71
2022-11-24T06:27:41.427Z,91.62
2022-11-24T06:29:13.582Z,91.71
2022-11-24T06:30:46.351Z,91.62
2022-11-24T06:32:18.479Z,91.41
2022-11-24T06:33:50.491Z,91.21
2022-11-24T06:35:22.457Z,91.08
2022-11-24T06:36:54.774Z,91.24
2022-11-24T06:38:26.717Z,91.09
2022-11-24T06:39:58.822Z,91.44
2022-11-24T06:41:30.663Z,91.47
2022-11-24T06:43:02.547Z,91.50
2022-11-24T06:44:34.833Z,91.62
2022-11-24T06:46:07.095Z,91.73
2022-11-24T06:47:39.073Z,91.75
2022-11-24T06:49:11.131Z,92.04
2022-11-24T06:50:43.188Z,91.92
2022-11-24T06:52:15.136Z,92.18
2022-11-24T06:53:47.055Z,92.06
2022-11-24T06:55:18.996Z,92.30
2022-11-24T06:56:50.907Z,92.38
2022-11-24T06:58:22.957Z,92.29
2022-11-24T06:59:54.790Z,92.07
2022-11-24T07:01:27.394Z,91.95
2022-11-24T07:02:59.676Z,91.73
2022-11-24T07:04:31.944Z,91.88
2022-11-24T07:06:04.492Z,91.81
2022-11-24T07:07:36.545Z,91.47
2022-11-24T07:09:09.902Z,91.45
2022-11-24T07:10:41.752Z,91.49
2022-11-24T07:12:13.874Z,91.30
2022-11-24T07:13:46.155Z,91.12
2022-11-24T07:15:18.338Z,91.17
2022-11-24T07:16:50.443Z,91.17
2022-11-24T07:18:22.871Z,90.76
2022-11-24T07:19:55.771Z,90.95
2022-11-24T07:21:28.598Z,90.98
2022-11-24T07:23:01.269Z,90.78
2022-11-24T07:24:33.524Z,90.93
2022-11-24T07:26:07.143Z,90.86
2022-11-24T07:27:39.194Z,90.67
2022-11-24T07:29:11.197Z,90.52
2022-11-24T07:30:44.329Z,90.49
2022-11-24T07:32:16.880Z,90.37
2022-11-24T07:33:54.757Z,90.50
2022-11-24T07:35:27.459Z,90.26
2022-11-24T07:36:59.515Z,90.44
2022-11-24T07:38:32.359Z,90.14
2022-11-24T07:40:04.395Z,90.17
2022-11-24T07:41:36.732Z,90.32
2022-11-24T07:43:08.605Z,90.29
2022-11-24T07:44:43.828Z,90.04
2022-11-24T07:46:17.207Z,90.22
2022-11-24T07:47:49.468Z,90.02
2022-11-24T07:49:21.660Z,90.01
2022-11-24T07:50:56.152Z,89.94
2022-11-24T07:52:31.304Z,89.69
2022-11-24T07:54:03.611Z,89.41
2022-11-24T07:55:35.519Z,89.23
2022-11-24T07:57:07.740Z,89.39
2022-11-24T07:58:39.777Z,89.36
2022-11-24T08:00:13.362Z,89.38
2022-11-24T08:01:45.619Z,89.35
2022-11-24T08:03:17.901Z,89.14
2022-11-24T08:04:50.131Z,88.96
2022-11-24T08:06:27.230Z,88.76
2022-11-24T08:08:01.237Z,88.30
2022-11-24T08:09:33.430Z,88.40
2022-11-24T08:11:09.661Z,88.29
2022-11-24T08:12:43.795Z,87.77
2022-11-24T08:14:16.141Z,87.70
2022-11-24T08:15:48.216Z,87.73
2022-11-24T08:17:20.396Z,88.03
2022-11-24T08:18:53.259Z,87.83
2022-11-24T08:20:25.471Z,87.56
2022-11-24T08:21:58.470Z,86.88
2022-11-24T08:23:30.835Z,87.35
2022-11-24T08:25:02.889Z,86.97
2022-11-24T08:26:34.817Z,86.90
2022-11-24T08:28:06.841Z,86.91
2022-11-24T08:29:38.927Z,86.42
2022-11-24T08:31:12.515Z,86.49
2022-11-24T08:32:44.542Z,86.02
2022-11-24T08:34:16.823Z,85.92
2022-11-24T08:35:48.743Z,85.18
2022-11-24T08:37:20.914Z,84.65
2022-11-24T08:38:56.853Z,84.88
2022-11-24T08:40:28.898Z,84.41
2022-11-24T08:42:01.006Z,83.87
2022-11-24T08:43:33.265Z,83.92
2022-11-24T08:45:19.884Z,83.90
2022-11-24T08:46:53.971Z,83.73
2022-11-24T08:48:25.852Z,83.50
2022-11-24T08:51:30.098Z,83.26
2022-11-24T08:53:03.696Z,83.28
2022-11-24T08:54:35.837Z,83.36
2022-11-24T08:56:08.479Z,83.31
2022-11-24T08:57:40.738Z,83.78
2022-11-24T08:59:14.549Z,83.85
2022-11-24T09:00:46.758Z,83.55
2022-11-24T09:02:18.920Z,83.56
2022-11-24T09:03:51.575Z,83.87
2022-11-24T09:05:50.816Z,84.17
2022-11-24T09:07:16.015Z,84.34
2022-11-24T09:08:48.919Z,84.36
2022-11-24T09:10:21.008Z,84.46
2022-11-24T09:11:52.873Z,84.25
2022-11-24T09:13:24.853Z,84.27
2022-11-24T09:14:57.091Z,83.70
2022-11-24T09:16:32.129Z,83.34
2022-11-24T09:18:04.191Z,83.69
2022-11-24T09:19:36.514Z,83.84
2022-11-24T09:21:09.705Z,83.67
2022-11-24T09:22:43.439Z,83.94
2022-11-24T09:24:18.299Z,83.46
2022-11-24T09:25:50.438Z,83.47
2022-11-24T09:27:22.677Z,83.32
2022-11-24T09:28:55.674Z,83.25
2022-11-24T09:30:28.039Z,83.06
2022-11-24T09:32:06.376Z,82.67
2022-11-24T09:33:39.287Z,82.50
2022-11-24T09:35:11.516Z,81.42
2022-11-24T09:36:43.700Z,80.18
2022-11-24T09:38:15.807Z,80.44
2022-11-24T09:39:47.940Z,80.54
2022-11-24T09:41:35.347Z,80.59
2022-11-24T09:43:09.749Z,80.10
2022-11-24T09:44:55.036Z,80.31
2022-11-24T09:46:28.601Z,80.53
2022-11-24T09:49:36.437Z,81.08
2022-11-24T09:51:10.990Z,80.61
2022-11-24T09:52:43.022Z,80.64
2022-11-24T09:54:19.994Z,80.50
2022-11-24T09:55:52.918Z,80.18
2022-11-24T09:57:24.965Z,80.07
2022-11-24T09:59:01.110Z,80.37
2022-11-24T10:00:33.750Z,80.56
2022-11-24T10:02:08.505Z,80.32
2022-11-24T10:03:44.220Z,80.15
2022-11-24T10:05:16.166Z,80.35
2022-11-24T10:06:54.146Z,80.57
2022-11-24T10:08:39.950Z,80.19
2022-11-24T10:10:17.408Z,80.13
2022-11-24T10:12:00.739Z,80.02
2022-11-24T10:13:51.671Z,80.14
2022-11-24T10:15:26.163Z,79.97
2022-11-24T10:17:02.301Z,80.22
2022-11-24T10:18:46.393Z,80.16
2022-11-24T10:20:24.274Z,79.74
2022-11-24T10:22:08.465Z,79.64
2022-11-24T10:25:16.605Z,78.82
2022-11-24T10:26:52.276Z,78.76
2022-11-24T10:28:25.996Z,78.35
2022-11-24T10:29:58.373Z,78.37
2022-11-24T10:31:34.999Z,78.39
2022-11-24T10:33:17.832Z,78.60
2022-11-24T10:34:53.178Z,78.01
2022-11-24T10:36:54.387Z,78.34
2022-11-24T10:38:35.532Z,77.24
2022-11-24T10:40:33.074Z,76.65
2022-11-24T10:42:15.151Z,77.36
2022-11-24T10:43:47.217Z,77.39
2022-11-24T10:45:20.235Z,77.27
2022-11-24T10:46:52.846Z,77.10
2022-11-24T10:48:25.918Z,77.31
2022-11-24T10:50:00.561Z,77.37
2022-11-24T10:51:32.613Z,77.38
2022-11-24T10:53:13.531Z,76.91
2022-11-24T10:54:59.034Z,76.78
2022-11-24T10:56:39.189Z,77.05
2022-11-24T10:58:17.657Z,76.95
2022-11-24T10:59:49.804Z,76.88
2022-11-24T11:01:25.110Z,76.97
2022-11-24T11:03:16.806Z,77.21
2022-11-24T11:04:48.828Z,77.55
2022-11-24T11:06:23.981Z,77.73
2022-11-24T11:08:22.461Z,77.56
2022-11-24T11:10:13.085Z,78.09
2022-11-24T11:11:47.370Z,77.85
2022-11-24T11:13:22.399Z,78.20
2022-11-24T11:14:54.465Z,78.22
2022-11-24T11:16:28.435Z,78.23
2022-11-24T11:18:01.531Z,78.18
2022-11-24T11:19:53.259Z,78.06
2022-11-24T11:21:28.967Z,78.50
2022-11-24T11:23:02.457Z,78.44
2022-11-24T11:24:34.416Z,78.51
2022-11-24T11:26:25.224Z,78.82
2022-11-24T11:31:22.918Z,79.11
2022-11-24T11:34:51.983Z,79.03
2022-11-24T11:36:24.092Z,79.03
2022-11-24T11:37:57.940Z,78.99
2022-11-24T11:39:30.053Z,79.11
2022-11-24T11:41:02.172Z,79.38
2022-11-24T11:44:45.259Z,79.35
2022-11-24T11:46:17.562Z,79.11
2022-11-24T11:48:01.797Z,79.19
2022-11-24T11:49:34.022Z,79.31
2022-11-24T11:51:23.260Z,79.08
2022-11-24T11:53:04.973Z,79.06
2022-11-24T11:54:53.677Z,79.56
2022-11-24T11:56:26.466Z,79.69
2022-11-24T11:58:10.546Z,79.72
2022-11-24T12:00:03.179Z,79.95
2022-11-24T12:01:56.784Z,80.00
2022-11-24T12:03:51.098Z,80.51
2022-11-24T12:05:42.617Z,80.71
2022-11-24T12:07:47.037Z,80.47
2022-11-24T12:09:41.054Z,80.69
2022-11-24T12:11:18.374Z,81.24
2022-11-24T12:12:52.958Z,81.39
2022-11-24T12:14:31.280Z,81.48
2022-11-24T12:16:12.218Z,81.49
2022-11-24T12:17:55.616Z,81.45
2022-11-24T12:19:48.979Z,81.64
2022-11-24T12:21:26.662Z,81.77
2022-11-24T12:23:14.587Z,81.71
2022-11-24T12:24:46.711Z,81.86
2022-11-24T12:26:30.734Z,81.66
2022-11-24T12:28:18.577Z,81.96
2022-11-24T12:30:02.669Z,81.88
2022-11-24T12:31:50.677Z,82.11
2022-11-24T12:33:29.784Z,81.97
2022-11-24T12:35:20.254Z,82.00
2022-11-24T12:37:02.289Z,81.99
2022-11-24T12:38:51.714Z,82.27
2022-11-24T12:40:29.510Z,82.06
2022-11-24T12:42:01.275Z,82.40
2022-11-24T12:43:34.539Z,82.44
2022-11-24T12:45:09.507Z,82.58
2022-11-24T12:46:47.630Z,82.50
2022-11-24T12:48:25.808Z,82.57
2022-11-24T12:50:11.101Z,82.58
2022-11-24T12:51:43.849Z,82.33
2022-11-24T12:53:34.619Z,82.24
2022-11-24T12:55:09.011Z,82.39
2022-11-24T12:56:43.096Z,82.52
2022-11-24T12:58:17.901Z,82.56
2022-11-24T12:59:54.870Z,82.56
2022-11-24T13:01:48.172Z,82.36
2022-11-24T13:03:24.508Z,82.36
2022-11-24T13:05:15.225Z,82.51
2022-11-24T13:07:02.247Z,82.38
2022-11-24T13:08:35.206Z,82.16
2022-11-24T13:10:54.677Z,82.00
2022-11-24T13:12:20.308Z,81.86
2022-11-24T13:14:02.134Z,81.94
2022-11-24T13:16:07.157Z,81.76
2022-11-24T13:18:02.814Z,81.67
2022-11-24T13:19:36.893Z,81.55
2022-11-24T13:21:27.301Z,81.67
2022-11-24T13:23:00.585Z,81.61
2022-11-24T13:24:34.751Z,81.44
2022-11-24T13:26:24.370Z,81.08
2022-11-24T13:28:00.008Z,80.81
2022-11-24T13:29:33.937Z,80.95
2022-11-24T13:31:10.896Z,80.98
2022-11-24T13:32:43.136Z,80.79
2022-11-24T13:34:41.900Z,80.61
2022-11-24T13:36:25.766Z,80.68
2022-11-24T13:37:58.145Z,80.68
2022-11-24T13:39:50.308Z,80.54
2022-11-24T13:41:34.693Z,80.17
2022-11-24T13:43:08.066Z,79.78
2022-11-24T13:44:46.733Z,79.90
2022-11-24T13:46:18.871Z,79.71
2022-11-24T13:49:38.114Z,79.41
2022-11-24T13:51:14.782Z,79.65
2022-11-24T13:52:48.294Z,79.58
2022-11-24T13:54:20.320Z,79.63
2022-11-24T13:55:57.207Z,79.50
2022-11-24T13:57:35.299Z,79.66
2022-11-24T13:59:36.900Z,79.57
2022-11-24T14:01:13.053Z,79.57
2022-11-24T14:02:45.002Z,79.43
2022-11-24T14:04:33.141Z,79.42
2022-11-24T14:06:05.745Z,79.45
2022-11-24T14:07:37.828Z,79.26
2022-11-24T14:09:28.635Z,79.14
2022-11-24T14:11:01.207Z,79.20
2022-11-24T14:12:34.492Z,79.44
2022-11-24T14:14:16.036Z,79.67
2022-11-24T14:16:05.089Z,79.38
2022-11-24T14:17:37.921Z,79.25
2022-11-24T14:19:10.319Z,79.30
2022-11-24T14:20:42.191Z,79.45
2022-11-24T14:22:21.295Z,79.54
2022-11-24T14:24:04.554Z,79.76
2022-11-24T14:25:36.518Z,80.01
2022-11-24T14:27:12.835Z,80.37
2022-11-24T14:28:44.849Z,80.35
2022-11-24T14:30:21.382Z,79.94
2022-11-24T14:31:56.930Z,80.21
2022-11-24T14:33:29.038Z,80.24
2022-11-24T14:35:01.282Z,79.92
2022-11-24T14:36:33.700Z,79.68
2022-11-24T14:38:06.209Z,79.83
2022-11-24T14:39:41.647Z,79.93
2022-11-24T14:41:26.425Z,79.63
2022-11-24T14:43:01.453Z,79.49
2022-11-24T14:44:59.866Z,79.82
2022-11-24T14:48:05.140Z,80.18
2022-11-24T14:49:39.638Z,80.71
2022-11-24T14:51:11.683Z,80.93
2022-11-24T14:52:44.468Z,81.34
2022-11-24T14:54:17.899Z,81.62
2022-11-24T14:55:49.851Z,81.52
2022-11-24T14:57:34.873Z,81.39
2022-11-24T14:59:23.184Z,81.59
2022-11-24T15:01:10.472Z,81.43
2022-11-24T15:02:45.102Z,81.33
2022-11-24T15:04:46.309Z,81.72
2022-11-24T15:06:17.804Z,81.72
2022-11-24T15:07:50.764Z,81.78
2022-11-24T15:09:25.351Z,81.77
2022-11-24T15:11:06.405Z,81.71
2022-11-24T15:12:42.123Z,81.64
2022-11-24T15:14:30.251Z,81.96
2022-11-24T15:16:03.773Z,82.20
2022-11-24T15:17:35.968Z,82.09
2022-11-24T15:19:12.722Z,82.55
2022-11-24T15:22:34.375Z,82.58
2022-11-24T15:24:07.533Z,82.62
2022-11-24T15:25:39.647Z,82.62
2022-11-24T15:27:11.581Z,82.30
2022-11-24T15:28:43.592Z,82.31
2022-11-24T15:30:15.733Z,82.71
2022-11-24T15:31:52.405Z,82.34
2022-11-24T15:33:24.871Z,82.83
2022-11-24T15:34:56.744Z,82.71
2022-11-24T15:36:28.883Z,82.44
2022-11-24T15:38:00.876Z,82.47
2022-11-24T15:39:33.022Z,82.65
2022-11-24T15:41:06.398Z,82.57
2022-11-24T15:42:38.510Z,82.48
2022-11-24T15:44:10.622Z,82.65
2022-11-24T15:45:42.555Z,82.68
2022-11-24T15:47:14.667Z,82.83
2022-11-24T15:48:49.624Z,82.88
2022-11-24T15:50:21.691Z,82.93
2022-11-24T15:51:54.081Z,82.94
2022-11-24T15:53:27.194Z,83.03
2022-11-24T15:54:59.429Z,83.00
2022-11-24T15:58:05.952Z,82.96
2022-11-24T15:59:40.431Z,82.77
2022-11-24T16:01:12.540Z,82.45
2022-11-24T16:02:44.753Z,82.42
2022-11-24T16:04:16.900Z,82.54
2022-11-24T16:05:49.203Z,82.34
2022-11-24T16:07:21.128Z,82.33
2022-11-24T16:08:53.574Z,82.26
2022-11-24T16:10:26.643Z,82.58
2022-11-24T16:11:58.671Z,82.91
2022-11-24T16:13:30.619Z,82.92
2022-11-24T16:15:02.626Z,82.56
2022-11-24T16:16:34.730Z,82.55
2022-11-24T16:18:07.274Z,82.49
2022-11-24T16:19:41.992Z,82.52
2022-11-24T16:21:14.260Z,82.49
2022-11-24T16:22:46.268Z,82.56
2022-11-24T16:24:18.338Z,82.46
2022-11-24T16:25:50.365Z,82.42
2022-11-24T16:27:22.312Z,82.38
2022-11-24T16:28:54.530Z,82.69
2022-11-24T16:30:26.768Z,82.14
2022-11-24T16:31:59.039Z,82.26
2022-11-24T16:33:31.167Z,82.23
2022-11-24T16:35:03.226Z,82.53
2022-11-24T16:36:35.371Z,82.50
2022-11-24T16:38:07.508Z,82.28
2022-11-24T16:39:39.872Z,82.51
2022-11-24T16:41:12.298Z,82.40
2022-11-24T16:42:44.221Z,82.59
2022-11-24T16:44:16.467Z,82.71
2022-11-24T16:45:50.480Z,82.95
2022-11-24T16:47:22.412Z,83.40
2022-11-24T16:48:55.439Z,83.47
2022-11-24T16:50:27.484Z,83.30
2022-11-24T16:51:59.364Z,83.02
2022-11-24T16:53:31.272Z,83.17
2022-11-24T16:55:04.061Z,83.01
2022-11-24T16:56:36.051Z,82.96
2022-11-24T16:58:08.336Z,82.73
2022-11-24T17:02:53.745Z,82.87
2022-11-24T17:04:25.921Z,82.71
2022-11-24T17:05:58.447Z,83.00
2022-11-24T17:07:30.838Z,82.91
2022-11-24T17:09:03.361Z,82.83
2022-11-24T17:10:38.259Z,82.71
2022-11-24T17:12:10.178Z,82.81
2022-11-24T17:13:42.313Z,82.65
2022-11-24T17:17:07.250Z,82.93
2022-11-24T17:18:39.419Z,82.76
2022-11-24T17:20:12.171Z,83.00
2022-11-24T17:21:44.144Z,82.85
2022-11-24T17:23:16.532Z,82.74
2022-11-24T17:24:48.750Z,82.60
2022-11-24T17:26:20.909Z,82.76
2022-11-24T17:27:53.229Z,82.94
2022-11-24T17:29:25.536Z,83.31
2022-11-24T17:30:57.720Z,83.33
2022-11-24T17:32:29.705Z,83.32
2022-11-24T17:34:02.241Z,83.57
2022-11-24T17:35:35.300Z,83.60
2022-11-24T17:37:07.302Z,83.42
2022-11-24T17:38:39.388Z,83.80
2022-11-24T17:40:27.976Z,84.02
2022-11-24T17:42:01.697Z,83.65
2022-11-24T17:43:34.591Z,83.69
2022-11-24T17:45:07.053Z,84.07
2022-11-24T17:46:39.469Z,84.13
2022-11-24T17:48:11.374Z,84.10
2022-11-24T17:49:43.308Z,83.90
2022-11-24T17:51:16.301Z,84.06
2022-11-24T17:52:48.437Z,83.93
2022-11-24T17:56:16.639Z,84.01
2022-11-24T17:57:48.832Z,84.21
2022-11-24T18:00:59.906Z,84.06
2022-11-24T18:02:32.765Z,84.42
2022-11-24T18:04:05.060Z,84.72
2022-11-24T18:05:37.213Z,84.86
2022-11-24T18:07:09.300Z,84.60
2022-11-24T18:08:42.350Z,84.45
2022-11-24T18:10:14.490Z,84.63
2022-11-24T18:11:48.146Z,84.66
2022-11-24T18:13:41.123Z,84.53
2022-11-24T18:15:11.955Z,84.41
2022-11-24T18:16:44.104Z,84.76
2022-11-24T18:18:16.263Z,84.80
2022-11-24T18:19:48.248Z,84.57
2022-11-24T18:21:20.228Z,84.51
2022-11-24T18:23:05.637Z,84.51
2022-11-24T18:24:39.165Z,84.42
2022-11-24T18:26:17.951Z,84.28
2022-11-24T18:27:50.031Z,84.07
2022-11-24T18:29:22.445Z,84.24
2022-11-24T18:30:54.560Z,84.11
2022-11-24T18:32:26.786Z,83.53
2022-11-24T18:33:59.648Z,83.55
2022-11-24T18:35:31.914Z,83.31
2022-11-24T18:37:04.055Z,83.28
2022-11-24T18:38:39.438Z,82.98
2022-11-24T18:40:11.539Z,82.88
2022-11-24T18:41:43.519Z,82.88
2022-11-24T18:43:15.677Z,82.91
2022-11-24T18:44:52.578Z,82.37
2022-11-24T18:46:25.991Z,82.21
2022-11-24T18:47:58.234Z,82.35
2022-11-24T18:49:32.299Z,82.36
2022-11-24T18:51:04.702Z,82.27
2022-11-24T18:52:36.851Z,81.94
2022-11-24T18:54:09.181Z,81.74
2022-11-24T18:55:41.195Z,81.69
2022-11-24T18:57:13.110Z,81.89
2022-11-24T18:58:45.934Z,81.56
2022-11-24T19:00:19.139Z,81.82
2022-11-24T19:01:51.384Z,82.06
2022-11-24T19:03:23.749Z,81.69
2022-11-24T19:04:55.925Z,81.50
2022-11-24T19:06:35.013Z,81.53
2022-11-24T19:08:07.063Z,81.50
2022-11-24T19:09:39.030Z,81.47
2022-11-24T19:11:17.451Z,81.56
2022-11-24T19:12:49.872Z,81.41
2022-11-24T19:14:21.700Z,81.67
2022-11-24T19:15:53.684Z,81.35
2022-11-24T19:17:25.551Z,81.43
2022-11-24T19:19:00.336Z,81.81
2022-11-24T19:20:34.016Z,81.93
2022-11-24T19:22:06.221Z,81.84
2022-11-24T19:23:38.114Z,81.90
2022-11-24T19:25:10.268Z,81.97
2022-11-24T19:26:42.272Z,82.31
2022-11-24T19:28:14.163Z,82.26
2022-11-24T19:29:46.929Z,82.54
2022-11-24T19:31:19.321Z,82.18
2022-11-24T19:32:51.742Z,82.21
2022-11-24T19:34:23.826Z,82.07
2022-11-24T19:36:05.843Z,81.96
2022-11-24T19:37:37.688Z,81.97
2022-11-24T19:39:15.736Z,81.99
2022-11-24T19:40:47.665Z,82.06
2022-11-24T19:42:19.620Z,81.74
2022-11-24T19:43:55.206Z,81.59
2022-11-24T19:45:27.371Z,81.32
2022-11-24T19:46:59.223Z,81.61
2022-11-24T19:48:34.558Z,81.37
2022-11-24T19:50:10.342Z,81.71
2022-11-24T19:51:42.452Z,81.40
2022-11-24T19:53:14.398Z,81.69
2022-11-24T19:54:47.017Z,81.86
2022-11-24T19:56:22.634Z,81.99
2022-11-24T19:59:26.827Z,82.21
2022-11-24T20:01:08.533Z,82.05
2022-11-24T20:02:40.622Z,82.43
2022-11-24T20:04:14.029Z,82.90
2022-11-24T20:05:54.375Z,82.70
2022-11-24T20:07:26.426Z,82.66
2022-11-24T20:08:59.086Z,82.37
2022-11-24T20:10:31.238Z,82.31
2022-11-24T20:12:03.461Z,82.45
2022-11-24T20:13:35.785Z,82.43
2022-11-24T20:15:08.042Z,82.41
2022-11-24T20:16:40.077Z,82.32
2022-11-24T20:18:12.175Z,82.38
2022-11-24T20:19:44.071Z,82.35
2022-11-24T20:21:17.033Z,82.56
2022-11-24T20:22:48.970Z,82.57
2022-11-24T20:24:22.383Z,82.30
2022-11-24T20:25:54.428Z,81.83
2022-11-24T20:28:58.429Z,81.79
2022-11-24T20:30:30.381Z,81.37
2022-11-24T20:32:02.359Z,81.37
2022-11-24T20:33:34.851Z,81.33
2022-11-24T20:35:06.994Z,81.35
2022-11-24T20:36:40.193Z,81.48
2022-11-24T20:38:12.406Z,81.54
2022-11-24T20:39:44.321Z,81.73
2022-11-24T20:41:26.195Z,81.32
2022-11-24T20:42:58.170Z,81.61
2022-11-24T20:44:30.715Z,81.54
2022-11-24T20:46:03.404Z,81.63
2022-11-24T20:47:35.336Z,81.65
2022-11-24T20:49:07.464Z,81.80
2022-11-24T20:50:39.617Z,82.26
2022-11-24T20:52:11.928Z,82.23
2022-11-24T20:53:44.160Z,82.43
2022-11-24T20:55:16.214Z,82.38
2022-11-24T20:56:48.358Z,82.46